EZY12ZY LTBS-EGPH
Flight info
| Callsign | EZY12ZY |
|---|---|
| Flight time | N/A |
| Altitude | 36000 |
| Route | KEKIK1C/19 KEKIK T476 YOYYO UN128 RIKSO DCT EVIVI L863 OKANA DCT RAVAK DCT BGD DCT BABIT DCT ARSIN DCT DITIS DCT LOMKI DCT VARIK DCT KATCE DCT MEBIX DCT TOPPA DCT BAZNA DCT TOWTE DCT NATEB Y96 AGPED |
| Aircraft | A320/M-SDE3FGHIRWY/LB1 |
Departure
| Time | 2026-04-26 13:43 |
|---|---|
| Airport | Dalaman International Airport (LTBS) |
Arrival
| Time | N/A |
|---|---|
| Airport | Edinburgh Airport (EGPH) |
| Time | Latitude | Longitude | Altitude | Speed | Heading |
|---|---|---|---|---|---|
| 2026-04-26 12:59 | 36.72224 | 28.79043 | 12 ft | 0 kts | 285° |
| 2026-04-26 13:31 | 36.72220 | 28.79059 | 12 ft | 4 kts | 288° |
| 2026-04-26 13:31 | 36.72210 | 28.79090 | 14 ft | 4 kts | 303° |
| 2026-04-26 13:31 | 36.72193 | 28.79111 | 13 ft | 4 kts | 348° |
| 2026-04-26 13:32 | 36.72182 | 28.79112 | 1 ft | 0 kts | 15° |
| 2026-04-26 13:36 | 36.72199 | 28.79118 | 15 ft | 5 kts | 16° |
| 2026-04-26 13:36 | 36.72232 | 28.79130 | 24 ft | 4 kts | 16° |
| 2026-04-26 13:36 | 36.72258 | 28.79139 | 12 ft | 4 kts | 16° |
| 2026-04-26 13:36 | 36.72298 | 28.79165 | 12 ft | 7 kts | 52° |
| 2026-04-26 13:37 | 36.72298 | 28.79219 | 12 ft | 6 kts | 103° |
| 2026-04-26 13:37 | 36.72289 | 28.79261 | 12 ft | 4 kts | 106° |
| 2026-04-26 13:37 | 36.72282 | 28.79291 | 14 ft | 3 kts | 105° |
| 2026-04-26 13:37 | 36.72275 | 28.79331 | 12 ft | 7 kts | 96° |
| 2026-04-26 13:38 | 36.72298 | 28.79374 | 13 ft | 6 kts | 25° |
| 2026-04-26 13:38 | 36.72331 | 28.79386 | 12 ft | 4 kts | 16° |
| 2026-04-26 13:38 | 36.72356 | 28.79396 | 12 ft | 3 kts | 17° |
| 2026-04-26 13:38 | 36.72373 | 28.79402 | 12 ft | 2 kts | 17° |
| 2026-04-26 13:39 | 36.72381 | 28.79405 | 12 ft | 1 kts | 18° |
| 2026-04-26 13:39 | 36.72405 | 28.79414 | 12 ft | 9 kts | 15° |
| 2026-04-26 13:39 | 36.72471 | 28.79434 | 12 ft | 9 kts | 13° |
| 2026-04-26 13:39 | 36.72528 | 28.79452 | 12 ft | 8 kts | 14° |
| 2026-04-26 13:40 | 36.72574 | 28.79467 | 12 ft | 6 kts | 15° |
| 2026-04-26 13:40 | 36.72611 | 28.79481 | 12 ft | 5 kts | 17° |
| 2026-04-26 13:40 | 36.72637 | 28.79503 | 13 ft | 6 kts | 47° |
| 2026-04-26 13:40 | 36.72645 | 28.79558 | 12 ft | 6 kts | 102° |
| 2026-04-26 13:41 | 36.72634 | 28.79606 | 12 ft | 5 kts | 107° |
| 2026-04-26 13:41 | 36.72625 | 28.79642 | 12 ft | 4 kts | 108° |
| 2026-04-26 13:41 | 36.72618 | 28.79667 | 12 ft | 3 kts | 109° |
| 2026-04-26 13:41 | 36.72605 | 28.79688 | 12 ft | 2 kts | 148° |
| 2026-04-26 13:42 | 36.72585 | 28.79684 | 12 ft | 2 kts | 196° |
| 2026-04-26 13:42 | 36.72523 | 28.79662 | 12 ft | 29 kts | 196° |
| 2026-04-26 13:42 | 36.72077 | 28.79510 | 12 ft | 100 kts | 195° |
| 2026-04-26 13:42 | 36.71230 | 28.79220 | 13 ft | 150 kts | 195° |
| 2026-04-26 13:43 | 36.70147 | 28.78842 | 402 ft | 163 kts | 197° |
| 2026-04-26 13:43 | 36.69077 | 28.78470 | 1080 ft | 163 kts | 198° |
| 2026-04-26 13:43 | 36.67942 | 28.78084 | 1565 ft | 174 kts | 198° |
| 2026-04-26 13:43 | 36.66696 | 28.77658 | 1827 ft | 197 kts | 197° |
| 2026-04-26 13:44 | 36.65296 | 28.77181 | 2068 ft | 221 kts | 197° |
| 2026-04-26 13:44 | 36.63748 | 28.76595 | 2411 ft | 244 kts | 207° |
| 2026-04-26 13:44 | 36.62478 | 28.75138 | 2838 ft | 258 kts | 245° |
| 2026-04-26 13:44 | 36.62154 | 28.72967 | 3530 ft | 261 kts | 276° |
| 2026-04-26 13:45 | 36.62526 | 28.70748 | 4318 ft | 264 kts | 288° |
| 2026-04-26 13:45 | 36.63134 | 28.68572 | 5114 ft | 268 kts | 292° |
| 2026-04-26 13:45 | 36.63791 | 28.66379 | 5876 ft | 273 kts | 291° |
| 2026-04-26 13:45 | 36.64430 | 28.64132 | 6624 ft | 278 kts | 290° |
| 2026-04-26 13:46 | 36.65075 | 28.61850 | 7362 ft | 281 kts | 296° |
| 2026-04-26 13:46 | 36.66092 | 28.59775 | 8099 ft | 282 kts | 311° |
| 2026-04-26 13:46 | 36.67507 | 28.58080 | 8849 ft | 284 kts | 323° |
| 2026-04-26 13:46 | 36.69065 | 28.56540 | 9610 ft | 288 kts | 323° |
| 2026-04-26 13:47 | 36.70620 | 28.54995 | 10308 ft | 291 kts | 323° |
| 2026-04-26 13:47 | 36.72221 | 28.53406 | 10849 ft | 302 kts | 324° |
| 2026-04-26 13:47 | 36.73961 | 28.51774 | 11029 ft | 324 kts | 325° |
| 2026-04-26 13:47 | 36.75811 | 28.50075 | 11460 ft | 335 kts | 326° |
| 2026-04-26 13:48 | 36.77703 | 28.48337 | 12099 ft | 340 kts | 326° |
| 2026-04-26 13:48 | 36.79613 | 28.46578 | 12775 ft | 343 kts | 325° |
| 2026-04-26 13:48 | 36.81541 | 28.44793 | 13443 ft | 347 kts | 325° |
| 2026-04-26 13:48 | 36.83484 | 28.42984 | 14056 ft | 350 kts | 325° |
| 2026-04-26 13:49 | 36.85446 | 28.41150 | 14631 ft | 353 kts | 325° |
| 2026-04-26 13:49 | 36.87421 | 28.39295 | 15209 ft | 356 kts | 325° |
| 2026-04-26 13:49 | 36.89411 | 28.37423 | 15752 ft | 359 kts | 325° |
| 2026-04-26 13:49 | 36.91417 | 28.35536 | 16330 ft | 362 kts | 325° |
| 2026-04-26 13:50 | 36.93434 | 28.33643 | 16933 ft | 364 kts | 325° |
| 2026-04-26 13:50 | 36.95466 | 28.31737 | 17511 ft | 367 kts | 325° |
| 2026-04-26 13:50 | 36.97514 | 28.29815 | 18080 ft | 369 kts | 325° |
| 2026-04-26 13:50 | 36.99574 | 28.27877 | 18593 ft | 372 kts | 325° |
| 2026-04-26 13:51 | 37.01655 | 28.25923 | 19090 ft | 374 kts | 326° |
| 2026-04-26 13:51 | 37.03747 | 28.23959 | 19573 ft | 377 kts | 326° |
| 2026-04-26 13:51 | 37.05848 | 28.21984 | 20040 ft | 380 kts | 326° |
| 2026-04-26 13:51 | 37.07968 | 28.19983 | 20524 ft | 382 kts | 326° |
| 2026-04-26 13:52 | 37.10098 | 28.17970 | 21001 ft | 384 kts | 326° |
| 2026-04-26 13:52 | 37.12209 | 28.15976 | 21467 ft | 387 kts | 326° |
| 2026-04-26 13:52 | 37.14366 | 28.13936 | 21922 ft | 389 kts | 326° |
| 2026-04-26 13:52 | 37.16534 | 28.11886 | 22388 ft | 391 kts | 326° |
| 2026-04-26 13:53 | 37.18714 | 28.09825 | 22836 ft | 394 kts | 326° |
| 2026-04-26 13:53 | 37.20907 | 28.07747 | 23289 ft | 396 kts | 326° |
| 2026-04-26 13:53 | 37.23111 | 28.05656 | 23661 ft | 398 kts | 326° |
| 2026-04-26 13:53 | 37.25325 | 28.03558 | 24020 ft | 400 kts | 326° |
| 2026-04-26 13:54 | 37.27557 | 28.01444 | 24394 ft | 402 kts | 326° |
| 2026-04-26 13:54 | 37.29794 | 27.99326 | 24744 ft | 404 kts | 326° |
| 2026-04-26 13:54 | 37.32045 | 27.97191 | 25091 ft | 406 kts | 326° |
| 2026-04-26 13:55 | 37.36574 | 27.92876 | 25781 ft | 410 kts | 326° |
| 2026-04-26 13:55 | 37.38081 | 27.91438 | 26010 ft | 411 kts | 326° |
| 2026-04-26 13:55 | 37.43430 | 27.86336 | 26789 ft | 415 kts | 326° |
| 2026-04-26 13:56 | 37.45740 | 27.84132 | 27125 ft | 417 kts | 326° |
| 2026-04-26 13:56 | 37.47273 | 27.82668 | 27306 ft | 418 kts | 326° |
| 2026-04-26 13:56 | 37.49593 | 27.80453 | 27646 ft | 420 kts | 326° |
| 2026-04-26 13:56 | 37.51926 | 27.78223 | 27979 ft | 422 kts | 326° |
| 2026-04-26 13:57 | 37.54265 | 27.75979 | 28303 ft | 423 kts | 326° |
| 2026-04-26 13:57 | 37.56612 | 27.73722 | 28639 ft | 425 kts | 326° |
| 2026-04-26 13:57 | 37.58970 | 27.71456 | 28940 ft | 427 kts | 326° |
| 2026-04-26 13:57 | 37.61338 | 27.69183 | 29247 ft | 429 kts | 326° |
| 2026-04-26 13:58 | 37.63717 | 27.66898 | 29545 ft | 430 kts | 326° |
| 2026-04-26 13:58 | 37.66102 | 27.64606 | 29833 ft | 432 kts | 326° |
| 2026-04-26 13:58 | 37.68501 | 27.62301 | 30098 ft | 434 kts | 327° |
| 2026-04-26 13:58 | 37.70903 | 27.59989 | 30339 ft | 435 kts | 326° |
| 2026-04-26 13:59 | 37.73309 | 27.57671 | 30611 ft | 435 kts | 326° |
| 2026-04-26 13:59 | 37.75708 | 27.55357 | 30959 ft | 433 kts | 326° |
| 2026-04-26 13:59 | 37.78107 | 27.53039 | 31297 ft | 432 kts | 326° |
| 2026-04-26 14:00 | 37.85239 | 27.46143 | 32288 ft | 428 kts | 326° |
| 2026-04-26 14:00 | 37.87603 | 27.43855 | 32676 ft | 426 kts | 326° |
| 2026-04-26 14:00 | 37.89157 | 27.42348 | 32912 ft | 424 kts | 326° |
| 2026-04-26 14:01 | 37.92254 | 27.39341 | 33338 ft | 423 kts | 326° |
| 2026-04-26 14:01 | 37.94586 | 27.37075 | 33665 ft | 422 kts | 326° |
| 2026-04-26 14:01 | 37.96907 | 27.34816 | 33984 ft | 421 kts | 326° |
| 2026-04-26 14:01 | 37.99225 | 27.32557 | 34225 ft | 420 kts | 326° |
| 2026-04-26 14:02 | 38.01538 | 27.30303 | 34463 ft | 419 kts | 326° |
| 2026-04-26 14:02 | 38.03850 | 27.28053 | 34699 ft | 419 kts | 326° |
| 2026-04-26 14:02 | 38.06162 | 27.25799 | 34929 ft | 418 kts | 325° |
| 2026-04-26 14:02 | 38.08469 | 27.23546 | 35157 ft | 418 kts | 325° |
| 2026-04-26 14:03 | 38.10770 | 27.21300 | 35383 ft | 417 kts | 325° |
| 2026-04-26 14:03 | 38.13074 | 27.19047 | 35578 ft | 417 kts | 325° |
| 2026-04-26 14:03 | 38.15368 | 27.16805 | 35768 ft | 417 kts | 325° |
| 2026-04-26 14:03 | 38.17670 | 27.14553 | 35915 ft | 416 kts | 325° |
| 2026-04-26 14:04 | 38.19956 | 27.12314 | 35952 ft | 414 kts | 324° |
| 2026-04-26 14:04 | 38.24502 | 27.07850 | 35948 ft | 414 kts | 324° |
| 2026-04-26 14:05 | 38.29071 | 27.03361 | 35945 ft | 415 kts | 325° |
| 2026-04-26 14:05 | 38.33613 | 26.98817 | 35945 ft | 415 kts | 322° |
| 2026-04-26 14:06 | 38.37979 | 26.94013 | 35952 ft | 415 kts | 321° |
| 2026-04-26 14:06 | 38.42299 | 26.89106 | 35956 ft | 415 kts | 321° |
| 2026-04-26 14:07 | 38.46610 | 26.84277 | 35955 ft | 415 kts | 321° |
| 2026-04-26 14:07 | 38.50973 | 26.79447 | 35974 ft | 415 kts | 321° |
| 2026-04-26 14:08 | 38.55333 | 26.74629 | 35983 ft | 414 kts | 321° |
| 2026-04-26 14:08 | 38.59682 | 26.69792 | 35993 ft | 414 kts | 321° |
| 2026-04-26 14:09 | 38.64020 | 26.64950 | 35994 ft | 414 kts | 321° |
| 2026-04-26 14:09 | 38.68360 | 26.60101 | 36000 ft | 413 kts | 321° |
| 2026-04-26 14:10 | 38.72690 | 26.55261 | 35991 ft | 413 kts | 320° |
| 2026-04-26 14:10 | 38.77020 | 26.50419 | 35989 ft | 412 kts | 320° |
| 2026-04-26 14:11 | 38.83457 | 26.43202 | 36003 ft | 411 kts | 320° |
| 2026-04-26 14:11 | 38.87785 | 26.38406 | 36010 ft | 411 kts | 321° |
| 2026-04-26 14:12 | 38.92139 | 26.33630 | 36008 ft | 411 kts | 321° |
| 2026-04-26 14:12 | 38.96482 | 26.28852 | 35999 ft | 411 kts | 321° |
| 2026-04-26 14:13 | 39.02975 | 26.21666 | 36012 ft | 410 kts | 320° |
| 2026-04-26 14:14 | 39.07289 | 26.16866 | 36012 ft | 410 kts | 320° |
| 2026-04-26 14:14 | 39.11607 | 26.12063 | 36016 ft | 409 kts | 320° |
| 2026-04-26 14:15 | 39.15913 | 26.07265 | 36008 ft | 409 kts | 320° |
| 2026-04-26 14:15 | 39.20220 | 26.02466 | 36018 ft | 409 kts | 320° |
| 2026-04-26 14:16 | 39.24527 | 25.97660 | 36022 ft | 409 kts | 320° |
| 2026-04-26 14:16 | 39.28806 | 25.92877 | 36026 ft | 409 kts | 319° |
| 2026-04-26 14:17 | 39.33101 | 25.88061 | 36027 ft | 409 kts | 319° |
| 2026-04-26 14:17 | 39.37423 | 25.83200 | 36030 ft | 409 kts | 319° |
| 2026-04-26 14:18 | 39.41688 | 25.78400 | 36033 ft | 409 kts | 319° |
| 2026-04-26 14:18 | 39.45977 | 25.73571 | 36031 ft | 408 kts | 319° |
| 2026-04-26 14:19 | 39.50254 | 25.68745 | 36028 ft | 408 kts | 319° |
| 2026-04-26 14:19 | 39.54529 | 25.63918 | 36023 ft | 408 kts | 319° |
| 2026-04-26 14:20 | 39.58802 | 25.59082 | 36031 ft | 407 kts | 319° |
| 2026-04-26 14:20 | 39.63067 | 25.54248 | 36033 ft | 407 kts | 319° |
| 2026-04-26 14:21 | 39.67324 | 25.49416 | 36031 ft | 406 kts | 319° |
| 2026-04-26 14:21 | 39.71572 | 25.44577 | 36030 ft | 406 kts | 319° |
| 2026-04-26 14:22 | 39.75816 | 25.39731 | 36029 ft | 406 kts | 318° |
| 2026-04-26 14:22 | 39.80054 | 25.34885 | 36032 ft | 406 kts | 318° |
| 2026-04-26 14:23 | 39.84293 | 25.30033 | 35987 ft | 406 kts | 318° |
| 2026-04-26 14:23 | 39.88506 | 25.25210 | 35989 ft | 405 kts | 318° |
| 2026-04-26 14:24 | 39.92737 | 25.20365 | 35989 ft | 405 kts | 318° |
| 2026-04-26 14:24 | 39.96963 | 25.15507 | 35988 ft | 404 kts | 318° |
| 2026-04-26 14:25 | 40.01176 | 25.10657 | 35992 ft | 404 kts | 317° |
| 2026-04-26 14:25 | 40.05388 | 25.05787 | 35999 ft | 404 kts | 317° |
| 2026-04-26 14:26 | 40.09598 | 25.00928 | 36022 ft | 404 kts | 317° |
| 2026-04-26 14:26 | 40.13798 | 24.96058 | 36020 ft | 404 kts | 317° |
| 2026-04-26 14:27 | 40.18003 | 24.91189 | 36022 ft | 404 kts | 317° |
| 2026-04-26 14:27 | 40.22203 | 24.86313 | 36023 ft | 403 kts | 317° |
| 2026-04-26 14:28 | 40.26391 | 24.81430 | 36027 ft | 403 kts | 317° |
| 2026-04-26 14:28 | 40.30577 | 24.76546 | 36027 ft | 403 kts | 317° |
| 2026-04-26 14:29 | 40.34759 | 24.71670 | 36022 ft | 402 kts | 317° |
| 2026-04-26 14:29 | 40.38937 | 24.66787 | 36001 ft | 402 kts | 317° |
| 2026-04-26 14:30 | 40.42402 | 24.62725 | 35999 ft | 402 kts | 317° |
| 2026-04-26 14:30 | 40.47249 | 24.57042 | 36001 ft | 402 kts | 317° |
| 2026-04-26 14:31 | 40.51411 | 24.52151 | 36001 ft | 402 kts | 317° |
| 2026-04-26 14:31 | 40.55576 | 24.47249 | 35996 ft | 402 kts | 317° |
| 2026-04-26 14:32 | 40.59737 | 24.42334 | 36008 ft | 402 kts | 316° |
| 2026-04-26 14:32 | 40.63892 | 24.37419 | 35991 ft | 402 kts | 316° |
| 2026-04-26 14:33 | 40.68050 | 24.32498 | 35989 ft | 402 kts | 316° |
| 2026-04-26 14:33 | 40.72206 | 24.27568 | 36001 ft | 401 kts | 316° |
| 2026-04-26 14:34 | 40.76350 | 24.22636 | 36000 ft | 401 kts | 316° |
| 2026-04-26 14:34 | 40.80496 | 24.17699 | 35993 ft | 401 kts | 316° |
| 2026-04-26 14:35 | 40.84647 | 24.12756 | 35990 ft | 401 kts | 316° |
| 2026-04-26 14:35 | 40.88784 | 24.07813 | 35973 ft | 401 kts | 316° |
| 2026-04-26 14:36 | 40.92917 | 24.02860 | 35979 ft | 401 kts | 316° |
| 2026-04-26 14:36 | 40.97052 | 23.97905 | 35974 ft | 401 kts | 316° |
| 2026-04-26 14:37 | 41.01187 | 23.92948 | 35982 ft | 400 kts | 316° |
| 2026-04-26 14:37 | 41.05312 | 23.87996 | 35977 ft | 400 kts | 316° |
| 2026-04-26 14:38 | 41.09426 | 23.83032 | 35985 ft | 400 kts | 316° |
| 2026-04-26 14:38 | 41.13531 | 23.78063 | 35979 ft | 400 kts | 316° |
| 2026-04-26 14:39 | 41.17639 | 23.73092 | 35978 ft | 399 kts | 316° |
| 2026-04-26 14:39 | 41.21737 | 23.68123 | 35980 ft | 399 kts | 316° |
| 2026-04-26 14:40 | 41.25146 | 23.63993 | 35971 ft | 399 kts | 316° |
| 2026-04-26 14:40 | 41.29909 | 23.58209 | 35978 ft | 399 kts | 316° |
| 2026-04-26 14:41 | 41.33341 | 23.54031 | 35962 ft | 399 kts | 316° |
| 2026-04-26 14:41 | 41.37431 | 23.49037 | 35991 ft | 399 kts | 315° |
| 2026-04-26 14:42 | 41.41837 | 23.44552 | 35983 ft | 402 kts | 329° |
| 2026-04-26 14:42 | 41.46844 | 23.41289 | 35986 ft | 403 kts | 331° |
| 2026-04-26 14:43 | 41.51883 | 23.38005 | 35978 ft | 403 kts | 331° |
| 2026-04-26 14:43 | 41.56929 | 23.34708 | 35984 ft | 403 kts | 331° |
| 2026-04-26 14:44 | 41.61977 | 23.31410 | 35993 ft | 404 kts | 331° |
| 2026-04-26 14:44 | 41.67024 | 23.28099 | 35997 ft | 404 kts | 331° |
| 2026-04-26 14:45 | 41.72070 | 23.24777 | 35990 ft | 404 kts | 331° |
| 2026-04-26 14:45 | 41.77122 | 23.21448 | 36001 ft | 404 kts | 331° |
| 2026-04-26 14:46 | 41.82178 | 23.18124 | 36029 ft | 405 kts | 331° |
| 2026-04-26 14:46 | 41.87205 | 23.14813 | 36021 ft | 405 kts | 331° |
| 2026-04-26 14:47 | 41.92297 | 23.11449 | 36022 ft | 405 kts | 331° |
| 2026-04-26 14:47 | 41.97355 | 23.08096 | 36017 ft | 405 kts | 331° |
| 2026-04-26 14:48 | 42.02414 | 23.04737 | 36023 ft | 405 kts | 331° |
| 2026-04-26 14:48 | 42.07437 | 23.01396 | 36030 ft | 405 kts | 331° |
| 2026-04-26 14:49 | 42.12492 | 22.98019 | 36026 ft | 406 kts | 331° |
| 2026-04-26 14:49 | 42.17586 | 22.94621 | 36023 ft | 406 kts | 331° |
| 2026-04-26 14:50 | 42.22618 | 22.91265 | 36026 ft | 406 kts | 331° |
| 2026-04-26 14:50 | 42.27674 | 22.87883 | 36042 ft | 406 kts | 331° |
| 2026-04-26 14:51 | 42.32738 | 22.84481 | 36041 ft | 406 kts | 332° |
| 2026-04-26 14:51 | 42.37805 | 22.81076 | 36042 ft | 407 kts | 332° |
| 2026-04-26 14:52 | 42.42879 | 22.77663 | 36034 ft | 407 kts | 331° |
| 2026-04-26 14:52 | 42.47958 | 22.74240 | 36035 ft | 408 kts | 331° |
| 2026-04-26 14:53 | 42.53047 | 22.70802 | 36038 ft | 408 kts | 331° |
| 2026-04-26 14:53 | 42.58124 | 22.67359 | 36047 ft | 409 kts | 331° |
| 2026-04-26 14:54 | 42.63211 | 22.63911 | 36050 ft | 409 kts | 331° |
| 2026-04-26 14:54 | 42.68295 | 22.60460 | 36052 ft | 408 kts | 331° |
| 2026-04-26 14:55 | 42.73378 | 22.56996 | 36061 ft | 409 kts | 331° |
| 2026-04-26 14:55 | 42.78462 | 22.53530 | 36059 ft | 409 kts | 331° |
| 2026-04-26 14:56 | 42.83548 | 22.50050 | 36063 ft | 409 kts | 330° |
| 2026-04-26 14:56 | 42.88221 | 22.45692 | 36053 ft | 407 kts | 322° |
| 2026-04-26 14:57 | 42.92767 | 22.41074 | 36051 ft | 408 kts | 322° |
| 2026-04-26 14:57 | 42.97317 | 22.36449 | 36063 ft | 408 kts | 322° |
| 2026-04-26 14:58 | 43.01873 | 22.31822 | 36057 ft | 408 kts | 322° |
| 2026-04-26 14:58 | 43.06432 | 22.27180 | 36051 ft | 409 kts | 322° |
| 2026-04-26 14:59 | 43.10990 | 22.22518 | 36050 ft | 409 kts | 322° |
| 2026-04-26 14:59 | 43.15513 | 22.17882 | 36053 ft | 409 kts | 322° |
| 2026-04-26 15:00 | 43.20069 | 22.13199 | 36062 ft | 409 kts | 322° |
| 2026-04-26 15:00 | 43.24621 | 22.08523 | 36064 ft | 408 kts | 322° |
| 2026-04-26 15:01 | 43.29162 | 22.03853 | 36054 ft | 408 kts | 322° |
| 2026-04-26 15:01 | 43.33708 | 21.99155 | 36053 ft | 409 kts | 322° |
| 2026-04-26 15:02 | 43.38258 | 21.94448 | 36049 ft | 410 kts | 322° |
| 2026-04-26 15:02 | 43.42816 | 21.89732 | 36047 ft | 410 kts | 322° |
| 2026-04-26 15:03 | 43.47366 | 21.85013 | 36059 ft | 410 kts | 321° |
| 2026-04-26 15:03 | 43.51912 | 21.80283 | 36065 ft | 409 kts | 322° |
| 2026-04-26 15:04 | 43.56421 | 21.75579 | 36066 ft | 409 kts | 322° |
| 2026-04-26 15:04 | 43.60955 | 21.70850 | 36070 ft | 409 kts | 322° |
| 2026-04-26 15:05 | 43.65494 | 21.66093 | 36057 ft | 410 kts | 322° |
| 2026-04-26 15:05 | 43.70032 | 21.61312 | 36073 ft | 410 kts | 320° |
| 2026-04-26 15:06 | 43.74457 | 21.56349 | 36061 ft | 410 kts | 319° |
| 2026-04-26 15:06 | 43.78825 | 21.51295 | 36081 ft | 409 kts | 319° |
| 2026-04-26 15:07 | 43.85377 | 21.43766 | 36083 ft | 408 kts | 319° |
| 2026-04-26 15:07 | 43.89764 | 21.38762 | 36062 ft | 409 kts | 319° |
| 2026-04-26 15:08 | 43.94154 | 21.33747 | 36072 ft | 409 kts | 319° |
| 2026-04-26 15:08 | 43.98553 | 21.28705 | 36073 ft | 410 kts | 319° |
| 2026-04-26 15:09 | 44.02941 | 21.23663 | 36080 ft | 409 kts | 319° |
| 2026-04-26 15:09 | 44.07318 | 21.18615 | 36081 ft | 409 kts | 319° |
| 2026-04-26 15:10 | 44.10966 | 21.14406 | 36080 ft | 409 kts | 319° |
| 2026-04-26 15:10 | 44.16089 | 21.08492 | 36087 ft | 409 kts | 319° |
| 2026-04-26 15:11 | 44.20472 | 21.03426 | 36098 ft | 409 kts | 319° |
| 2026-04-26 15:11 | 44.24844 | 20.98351 | 36112 ft | 409 kts | 319° |
| 2026-04-26 15:12 | 44.29211 | 20.93259 | 36087 ft | 409 kts | 319° |
| 2026-04-26 15:12 | 44.33582 | 20.88163 | 36081 ft | 410 kts | 319° |
| 2026-04-26 15:13 | 44.37939 | 20.83083 | 36086 ft | 410 kts | 319° |
| 2026-04-26 15:13 | 44.42323 | 20.77958 | 36095 ft | 410 kts | 319° |
| 2026-04-26 15:14 | 44.46699 | 20.72820 | 36122 ft | 410 kts | 318° |
| 2026-04-26 15:14 | 44.51061 | 20.67692 | 36128 ft | 409 kts | 319° |
| 2026-04-26 15:15 | 44.55412 | 20.62579 | 36106 ft | 408 kts | 319° |
| 2026-04-26 15:15 | 44.59763 | 20.57449 | 36120 ft | 408 kts | 318° |
| 2026-04-26 15:16 | 44.64106 | 20.52307 | 36119 ft | 408 kts | 319° |
| 2026-04-26 15:16 | 44.68456 | 20.47160 | 36122 ft | 409 kts | 319° |
| 2026-04-26 15:17 | 44.72105 | 20.42834 | 36130 ft | 410 kts | 318° |
| 2026-04-26 15:17 | 44.77159 | 20.36821 | 36130 ft | 410 kts | 318° |
| 2026-04-26 15:18 | 44.81503 | 20.31639 | 36136 ft | 409 kts | 318° |
| 2026-04-26 15:18 | 44.85839 | 20.26446 | 36152 ft | 408 kts | 318° |
| 2026-04-26 15:19 | 44.90135 | 20.21214 | 36140 ft | 408 kts | 318° |
| 2026-04-26 15:19 | 44.94433 | 20.15965 | 36121 ft | 409 kts | 317° |
| 2026-04-26 15:20 | 44.98752 | 20.10694 | 36117 ft | 410 kts | 318° |
| 2026-04-26 15:20 | 45.03080 | 20.05417 | 36111 ft | 411 kts | 318° |
| 2026-04-26 15:21 | 45.07415 | 20.00132 | 36119 ft | 412 kts | 317° |
| 2026-04-26 15:21 | 45.11741 | 19.94822 | 36121 ft | 412 kts | 317° |
| 2026-04-26 15:22 | 45.15334 | 19.90397 | 36120 ft | 412 kts | 317° |
| 2026-04-26 15:22 | 45.19667 | 19.85066 | 36125 ft | 412 kts | 317° |
| 2026-04-26 15:23 | 45.23996 | 19.79730 | 36144 ft | 412 kts | 317° |
| 2026-04-26 15:23 | 45.28317 | 19.74391 | 36141 ft | 412 kts | 317° |
| 2026-04-26 15:24 | 45.32634 | 19.69045 | 36143 ft | 411 kts | 317° |
| 2026-04-26 15:24 | 45.36950 | 19.63696 | 36127 ft | 412 kts | 317° |
| 2026-04-26 15:25 | 45.41280 | 19.58308 | 36121 ft | 413 kts | 317° |
| 2026-04-26 15:25 | 45.45576 | 19.52955 | 36129 ft | 413 kts | 317° |
| 2026-04-26 15:26 | 45.49903 | 19.47553 | 36147 ft | 413 kts | 317° |
| 2026-04-26 15:26 | 45.54223 | 19.42154 | 36154 ft | 413 kts | 317° |
| 2026-04-26 15:27 | 45.58562 | 19.36713 | 36158 ft | 412 kts | 317° |
| 2026-04-26 15:27 | 45.62827 | 19.31346 | 36154 ft | 411 kts | 317° |
| 2026-04-26 15:28 | 45.67125 | 19.25945 | 36152 ft | 411 kts | 317° |
| 2026-04-26 15:28 | 45.71415 | 19.20537 | 36155 ft | 411 kts | 317° |
| 2026-04-26 15:29 | 45.75702 | 19.15115 | 36143 ft | 411 kts | 317° |
| 2026-04-26 15:30 | 45.84266 | 19.04234 | 36151 ft | 411 kts | 317° |
| 2026-04-26 15:30 | 45.88546 | 18.98782 | 36151 ft | 411 kts | 317° |
| 2026-04-26 15:31 | 45.94967 | 18.90601 | 36148 ft | 411 kts | 317° |
| 2026-04-26 15:32 | 46.00663 | 18.83334 | 36149 ft | 411 kts | 317° |
| 2026-04-26 15:32 | 46.05660 | 18.76928 | 36155 ft | 411 kts | 316° |
| 2026-04-26 15:33 | 46.09925 | 18.71450 | 36160 ft | 411 kts | 316° |
| 2026-04-26 15:33 | 46.14193 | 18.65968 | 36159 ft | 411 kts | 316° |
| 2026-04-26 15:34 | 46.18452 | 18.60468 | 36158 ft | 411 kts | 316° |
| 2026-04-26 15:34 | 46.22704 | 18.54971 | 36160 ft | 410 kts | 316° |
| 2026-04-26 15:35 | 46.26957 | 18.49469 | 36160 ft | 410 kts | 316° |
| 2026-04-26 15:35 | 46.31207 | 18.43950 | 36178 ft | 410 kts | 316° |
| 2026-04-26 15:36 | 46.35419 | 18.38463 | 36180 ft | 409 kts | 316° |
| 2026-04-26 15:36 | 46.39679 | 18.32909 | 36178 ft | 409 kts | 316° |
| 2026-04-26 15:37 | 46.43900 | 18.27392 | 36179 ft | 408 kts | 316° |